sensor_id;sensor_type;location;lat;lon;timestamp;pressure;altitude;pressure_sealevel;temperature;humidity
38912;BME280;28444;48.056;14.408;2023-03-23T00:01:32;97186.38;;;8.51;83.48
38912;BME280;28444;48.056;14.408;2023-03-23T00:04:02;97186.31;;;8.58;83.49
38912;BME280;28444;48.056;14.408;2023-03-23T00:06:28;97191.22;;;8.60;83.38
38912;BME280;28444;48.056;14.408;2023-03-23T00:09:00;97186.47;;;8.60;83.22
38912;BME280;28444;48.056;14.408;2023-03-23T00:11:31;97181.59;;;8.59;83.31
38912;BME280;28444;48.056;14.408;2023-03-23T00:13:59;97181.41;;;8.57;82.66
38912;BME280;28444;48.056;14.408;2023-03-23T00:16:27;97183.53;;;8.66;82.95
38912;BME280;28444;48.056;14.408;2023-03-23T00:19:05;97184.34;;;8.76;82.76
38912;BME280;28444;48.056;14.408;2023-03-23T00:21:33;97182.13;;;8.82;82.04
38912;BME280;28444;48.056;14.408;2023-03-23T00:24:07;97180.53;;;8.79;81.90
38912;BME280;28444;48.056;14.408;2023-03-23T00:26:35;97177.22;;;8.81;81.98
38912;BME280;28444;48.056;14.408;2023-03-23T00:29:02;97180.66;;;8.81;81.86
38912;BME280;28444;48.056;14.408;2023-03-23T00:31:29;97182.19;;;8.75;82.12
38912;BME280;28444;48.056;14.408;2023-03-23T00:34:02;97184.50;;;8.61;83.45
38912;BME280;28444;48.056;14.408;2023-03-23T00:36:30;97174.59;;;8.48;83.25
38912;BME280;28444;48.056;14.408;2023-03-23T00:38:57;97184.19;;;8.49;82.87
38912;BME280;28444;48.056;14.408;2023-03-23T00:41:27;97181.97;;;8.55;82.84
38912;BME280;28444;48.056;14.408;2023-03-23T00:43:55;97180.22;;;8.50;82.72
38912;BME280;28444;48.056;14.408;2023-03-23T00:46:21;97177.69;;;8.44;83.03
38912;BME280;28444;48.056;14.408;2023-03-23T00:48:48;97185.16;;;8.44;83.55
38912;BME280;28444;48.056;14.408;2023-03-23T00:51:16;97179.56;;;8.34;84.19
38912;BME280;28444;48.056;14.408;2023-03-23T00:53:43;97176.28;;;8.36;83.48
38912;BME280;28444;48.056;14.408;2023-03-23T00:56:09;97176.50;;;8.30;84.16
38912;BME280;28444;48.056;14.408;2023-03-23T00:58:35;97173.13;;;8.22;84.11
38912;BME280;28444;48.056;14.408;2023-03-23T01:01:00;97174.88;;;8.27;85.06
38912;BME280;28444;48.056;14.408;2023-03-23T01:03:26;97173.63;;;8.28;84.96
38912;BME280;28444;48.056;14.408;2023-03-23T01:05:54;97173.78;;;8.30;84.91
38912;BME280;28444;48.056;14.408;2023-03-23T01:08:20;97175.41;;;8.33;83.98
38912;BME280;28444;48.056;14.408;2023-03-23T01:10:47;97171.75;;;8.38;84.67
38912;BME280;28444;48.056;14.408;2023-03-23T01:13:13;97165.38;;;8.43;83.88
38912;BME280;28444;48.056;14.408;2023-03-23T01:15:39;97164.59;;;8.51;83.89
38912;BME280;28444;48.056;14.408;2023-03-23T01:18:05;97168.47;;;8.40;84.26
38912;BME280;28444;48.056;14.408;2023-03-23T01:20:32;97176.69;;;8.32;84.12
38912;BME280;28444;48.056;14.408;2023-03-23T01:22:58;97167.63;;;8.30;84.67
38912;BME280;28444;48.056;14.408;2023-03-23T01:25:31;97162.66;;;8.36;84.75
38912;BME280;28444;48.056;14.408;2023-03-23T01:27:57;97172.84;;;8.35;83.81
38912;BME280;28444;48.056;14.408;2023-03-23T01:30:24;97166.81;;;8.44;83.04
38912;BME280;28444;48.056;14.408;2023-03-23T01:32:49;97163.19;;;8.42;83.96
38912;BME280;28444;48.056;14.408;2023-03-23T01:35:15;97163.28;;;8.27;84.18
38912;BME280;28444;48.056;14.408;2023-03-23T01:37:41;97165.09;;;8.24;84.77
38912;BME280;28444;48.056;14.408;2023-03-23T01:40:09;97152.38;;;8.27;84.16
38912;BME280;28444;48.056;14.408;2023-03-23T01:42:37;97149.09;;;8.28;84.67
38912;BME280;28444;48.056;14.408;2023-03-23T01:45:29;97143.81;;;8.30;84.06
38912;BME280;28444;48.056;14.408;2023-03-23T01:47:59;97142.69;;;8.33;84.08
38912;BME280;28444;48.056;14.408;2023-03-23T01:50:28;97144.84;;;8.42;83.42
38912;BME280;28444;48.056;14.408;2023-03-23T01:52:56;97144.47;;;8.46;82.53
38912;BME280;28444;48.056;14.408;2023-03-23T01:55:25;97143.56;;;8.43;82.78
38912;BME280;28444;48.056;14.408;2023-03-23T01:57:53;97141.81;;;8.31;83.17
38912;BME280;28444;48.056;14.408;2023-03-23T02:00:20;97150.94;;;8.26;83.37
38912;BME280;28444;48.056;14.408;2023-03-23T02:02:49;97149.09;;;8.28;83.02
38912;BME280;28444;48.056;14.408;2023-03-23T02:05:31;97139.53;;;8.19;83.21
38912;BME280;28444;48.056;14.408;2023-03-23T02:07:58;97140.50;;;8.14;84.11
38912;BME280;28444;48.056;14.408;2023-03-23T02:10:29;97139.38;;;8.17;83.08
38912;BME280;28444;48.056;14.408;2023-03-23T02:12:55;97135.09;;;8.07;84.13
38912;BME280;28444;48.056;14.408;2023-03-23T02:15:21;97135.97;;;8.09;84.42
38912;BME280;28444;48.056;14.408;2023-03-23T02:18:29;97138.34;;;8.05;84.36
38912;BME280;28444;48.056;14.408;2023-03-23T02:24:30;97129.53;;;7.97;84.78
38912;BME280;28444;48.056;14.408;2023-03-23T02:27:05;97134.41;;;7.99;85.03
38912;BME280;28444;48.056;14.408;2023-03-23T02:30:03;97136.97;;;7.96;84.83
38912;BME280;28444;48.056;14.408;2023-03-23T02:35:45;97125.47;;;8.06;85.00
38912;BME280;28444;48.056;14.408;2023-03-23T02:38:18;97124.75;;;8.05;84.58
38912;BME280;28444;48.056;14.408;2023-03-23T02:40:48;97121.16;;;8.03;85.33
38912;BME280;28444;48.056;14.408;2023-03-23T02:43:17;97137.88;;;7.99;85.73
38912;BME280;28444;48.056;14.408;2023-03-23T02:45:45;97125.91;;;7.94;85.91
38912;BME280;28444;48.056;14.408;2023-03-23T02:48:14;97132.44;;;7.91;85.37
38912;BME280;28444;48.056;14.408;2023-03-23T02:50:44;97131.38;;;7.87;85.31
38912;BME280;28444;48.056;14.408;2023-03-23T02:53:13;97121.94;;;7.88;85.44
38912;BME280;28444;48.056;14.408;2023-03-23T02:55:42;97124.84;;;7.90;85.12
38912;BME280;28444;48.056;14.408;2023-03-23T02:58:09;97120.84;;;7.91;85.14
38912;BME280;28444;48.056;14.408;2023-03-23T03:00:38;97123.03;;;7.92;85.40
38912;BME280;28444;48.056;14.408;2023-03-23T03:03:09;97126.84;;;7.89;84.78
38912;BME280;28444;48.056;14.408;2023-03-23T03:06:16;97121.06;;;7.85;84.03
38912;BME280;28444;48.056;14.408;2023-03-23T03:11:57;97125.19;;;7.61;86.28
38912;BME280;28444;48.056;14.408;2023-03-23T03:14:35;97129.72;;;7.66;86.65
38912;BME280;28444;48.056;14.408;2023-03-23T03:17:13;97114.69;;;7.58;86.10
38912;BME280;28444;48.056;14.408;2023-03-23T03:19:47;97117.63;;;7.52;86.82
38912;BME280;28444;48.056;14.408;2023-03-23T03:22:15;97121.44;;;7.49;87.69
38912;BME280;28444;48.056;14.408;2023-03-23T03:24:42;97114.56;;;7.48;87.69
38912;BME280;28444;48.056;14.408;2023-03-23T03:27:18;97126.69;;;7.47;86.44
38912;BME280;28444;48.056;14.408;2023-03-23T03:29:48;97124.69;;;7.47;86.80
38912;BME280;28444;48.056;14.408;2023-03-23T03:32:19;97127.28;;;7.38;87.21
38912;BME280;28444;48.056;14.408;2023-03-23T03:34:48;97121.81;;;7.45;87.30
38912;BME280;28444;48.056;14.408;2023-03-23T03:37:16;97119.44;;;7.50;86.90
38912;BME280;28444;48.056;14.408;2023-03-23T03:39:42;97124.84;;;7.57;86.43
38912;BME280;28444;48.056;14.408;2023-03-23T03:42:08;97120.13;;;7.58;86.63
38912;BME280;28444;48.056;14.408;2023-03-23T03:44:33;97127.16;;;7.68;85.60
38912;BME280;28444;48.056;14.408;2023-03-23T03:46:59;97131.47;;;7.71;85.42
38912;BME280;28444;48.056;14.408;2023-03-23T03:49:25;97131.81;;;7.76;85.62
38912;BME280;28444;48.056;14.408;2023-03-23T03:51:51;97133.25;;;7.77;85.68
38912;BME280;28444;48.056;14.408;2023-03-23T03:54:17;97134.53;;;7.76;85.64
38912;BME280;28444;48.056;14.408;2023-03-23T03:56:43;97134.94;;;7.72;86.31
38912;BME280;28444;48.056;14.408;2023-03-23T03:59:09;97138.94;;;7.71;86.93
38912;BME280;28444;48.056;14.408;2023-03-23T04:01:36;97146.19;;;7.68;87.38
38912;BME280;28444;48.056;14.408;2023-03-23T04:04:03;97146.56;;;7.65;87.21
38912;BME280;28444;48.056;14.408;2023-03-23T04:06:29;97144.34;;;7.79;87.30
38912;BME280;28444;48.056;14.408;2023-03-23T04:08:56;97153.56;;;7.83;87.03
38912;BME280;28444;48.056;14.408;2023-03-23T04:11:22;97144.66;;;7.83;86.49
38912;BME280;28444;48.056;14.408;2023-03-23T04:13:47;97149.41;;;7.82;86.52
38912;BME280;28444;48.056;14.408;2023-03-23T04:16:13;97150.06;;;7.90;86.78
38912;BME280;28444;48.056;14.408;2023-03-23T04:18:38;97150.25;;;7.92;85.84
38912;BME280;28444;48.056;14.408;2023-03-23T04:21:05;97149.91;;;7.88;85.75
38912;BME280;28444;48.056;14.408;2023-03-23T04:23:34;97149.78;;;7.79;86.32
38912;BME280;28444;48.056;14.408;2023-03-23T04:26:01;97154.53;;;7.70;87.29
38912;BME280;28444;48.056;14.408;2023-03-23T04:28:28;97153.47;;;7.66;87.83
38912;BME280;28444;48.056;14.408;2023-03-23T04:30:55;97152.91;;;7.67;87.55
38912;BME280;28444;48.056;14.408;2023-03-23T04:33:26;97154.19;;;7.66;87.57
38912;BME280;28444;48.056;14.408;2023-03-23T04:35:53;97152.19;;;7.67;86.96
38912;BME280;28444;48.056;14.408;2023-03-23T04:38:20;97155.78;;;7.69;87.67
38912;BME280;28444;48.056;14.408;2023-03-23T04:40:47;97154.06;;;7.57;87.49
38912;BME280;28444;48.056;14.408;2023-03-23T04:43:20;97155.84;;;7.62;87.47
38912;BME280;28444;48.056;14.408;2023-03-23T04:45:52;97165.47;;;7.55;87.51
38912;BME280;28444;48.056;14.408;2023-03-23T04:48:22;97161.84;;;7.60;87.51
38912;BME280;28444;48.056;14.408;2023-03-23T04:50:48;97174.16;;;7.61;87.83
38912;BME280;28444;48.056;14.408;2023-03-23T04:53:16;97162.03;;;7.55;87.03
38912;BME280;28444;48.056;14.408;2023-03-23T04:55:43;97172.75;;;7.53;87.33
38912;BME280;28444;48.056;14.408;2023-03-23T04:58:09;97169.09;;;7.58;87.34
38912;BME280;28444;48.056;14.408;2023-03-23T05:00:35;97163.84;;;7.60;86.88
38912;BME280;28444;48.056;14.408;2023-03-23T05:03:00;97175.06;;;7.64;86.68
38912;BME280;28444;48.056;14.408;2023-03-23T05:05:26;97178.69;;;7.59;86.51
38912;BME280;28444;48.056;14.408;2023-03-23T05:07:54;97177.59;;;7.62;86.98
38912;BME280;28444;48.056;14.408;2023-03-23T05:10:20;97182.50;;;7.63;87.00
38912;BME280;28444;48.056;14.408;2023-03-23T05:12:46;97183.22;;;7.64;86.20
38912;BME280;28444;48.056;14.408;2023-03-23T05:15:14;97191.75;;;7.68;85.40
38912;BME280;28444;48.056;14.408;2023-03-23T05:17:40;97191.22;;;7.62;85.73
38912;BME280;28444;48.056;14.408;2023-03-23T05:20:12;97199.94;;;7.60;85.81
38912;BME280;28444;48.056;14.408;2023-03-23T05:22:38;97198.84;;;7.63;85.31
38912;BME280;28444;48.056;14.408;2023-03-23T05:25:05;97197.00;;;7.66;86.73
38912;BME280;28444;48.056;14.408;2023-03-23T05:27:34;97202.28;;;7.64;86.44
38912;BME280;28444;48.056;14.408;2023-03-23T05:30:00;97202.44;;;7.66;85.15
38912;BME280;28444;48.056;14.408;2023-03-23T05:32:27;97204.25;;;7.71;85.08
38912;BME280;28444;48.056;14.408;2023-03-23T05:35:00;97207.34;;;7.67;84.92
38912;BME280;28444;48.056;14.408;2023-03-23T05:37:27;97210.22;;;7.69;85.31
38912;BME280;28444;48.056;14.408;2023-03-23T05:39:58;97201.91;;;7.67;85.34
38912;BME280;28444;48.056;14.408;2023-03-23T05:42:26;97211.13;;;7.72;85.67
38912;BME280;28444;48.056;14.408;2023-03-23T05:44:52;97211.44;;;7.84;84.91
38912;BME280;28444;48.056;14.408;2023-03-23T05:47:18;97206.00;;;7.84;85.14
38912;BME280;28444;48.056;14.408;2023-03-23T05:49:43;97213.81;;;7.80;85.48
38912;BME280;28444;48.056;14.408;2023-03-23T05:52:09;97221.13;;;7.77;85.01
38912;BME280;28444;48.056;14.408;2023-03-23T05:54:34;97223.47;;;7.81;85.39
38912;BME280;28444;48.056;14.408;2023-03-23T05:57:00;97216.88;;;7.84;85.73
38912;BME280;28444;48.056;14.408;2023-03-23T05:59:26;97216.13;;;7.91;84.98
38912;BME280;28444;48.056;14.408;2023-03-23T06:01:52;97207.44;;;7.92;84.59
38912;BME280;28444;48.056;14.408;2023-03-23T06:04:20;97217.41;;;7.90;85.68
38912;BME280;28444;48.056;14.408;2023-03-23T06:06:51;97216.34;;;7.85;85.30
38912;BME280;28444;48.056;14.408;2023-03-23T06:09:19;97227.88;;;8.01;84.74
38912;BME280;28444;48.056;14.408;2023-03-23T06:11:45;97219.91;;;8.03;85.21
38912;BME280;28444;48.056;14.408;2023-03-23T06:14:10;97217.28;;;8.13;85.07
38912;BME280;28444;48.056;14.408;2023-03-23T06:16:37;97214.56;;;8.13;85.24
38912;BME280;28444;48.056;14.408;2023-03-23T06:19:02;97227.03;;;8.24;84.80
38912;BME280;28444;48.056;14.408;2023-03-23T06:21:30;97235.28;;;8.08;85.51
38912;BME280;28444;48.056;14.408;2023-03-23T06:23:56;97231.97;;;8.17;85.29
38912;BME280;28444;48.056;14.408;2023-03-23T06:26:24;97225.81;;;8.17;86.51
38912;BME280;28444;48.056;14.408;2023-03-23T06:28:51;97216.13;;;8.24;85.61
38912;BME280;28444;48.056;14.408;2023-03-23T06:31:18;97225.78;;;8.25;86.00
38912;BME280;28444;48.056;14.408;2023-03-23T06:33:45;97236.78;;;8.34;85.97
38912;BME280;28444;48.056;14.408;2023-03-23T06:36:13;97243.09;;;8.44;84.54
38912;BME280;28444;48.056;14.408;2023-03-23T06:38:39;97239.44;;;8.50;83.57
38912;BME280;28444;48.056;14.408;2023-03-23T06:41:04;97238.25;;;8.60;83.61
38912;BME280;28444;48.056;14.408;2023-03-23T06:43:30;97238.72;;;8.74;83.22
38912;BME280;28444;48.056;14.408;2023-03-23T06:45:59;97244.16;;;8.74;82.40
38912;BME280;28444;48.056;14.408;2023-03-23T06:48:25;97243.78;;;8.78;82.52
38912;BME280;28444;48.056;14.408;2023-03-23T06:50:50;97228.47;;;8.82;82.35
38912;BME280;28444;48.056;14.408;2023-03-23T06:53:16;97235.84;;;8.89;82.08
38912;BME280;28444;48.056;14.408;2023-03-23T06:55:43;97234.66;;;9.00;81.38
38912;BME280;28444;48.056;14.408;2023-03-23T06:58:09;97241.19;;;9.05;81.46
38912;BME280;28444;48.056;14.408;2023-03-23T07:00:35;97243.28;;;9.14;81.52
38912;BME280;28444;48.056;14.408;2023-03-23T07:03:01;97247.22;;;9.21;81.16
38912;BME280;28444;48.056;14.408;2023-03-23T07:05:27;97252.50;;;9.19;81.08
38912;BME280;28444;48.056;14.408;2023-03-23T07:07:52;97261.03;;;9.23;81.22
38912;BME280;28444;48.056;14.408;2023-03-23T07:10:18;97262.00;;;9.35;80.64
38912;BME280;28444;48.056;14.408;2023-03-23T07:12:44;97257.91;;;9.44;80.12
38912;BME280;28444;48.056;14.408;2023-03-23T07:15:10;97260.81;;;9.46;80.18
38912;BME280;28444;48.056;14.408;2023-03-23T07:17:37;97258.41;;;9.50;79.77
38912;BME280;28444;48.056;14.408;2023-03-23T07:20:03;97257.44;;;9.55;79.94
38912;BME280;28444;48.056;14.408;2023-03-23T07:22:30;97255.09;;;9.51;80.04
38912;BME280;28444;48.056;14.408;2023-03-23T07:24:56;97257.50;;;9.47;80.35
38912;BME280;28444;48.056;14.408;2023-03-23T07:27:21;97255.44;;;9.38;81.06
38912;BME280;28444;48.056;14.408;2023-03-23T07:29:47;97259.59;;;9.39;81.17
38912;BME280;28444;48.056;14.408;2023-03-23T07:32:12;97272.31;;;9.44;80.37
38912;BME280;28444;48.056;14.408;2023-03-23T07:34:38;97265.94;;;9.42;81.18
38912;BME280;28444;48.056;14.408;2023-03-23T07:37:04;97266.66;;;9.42;81.15
38912;BME280;28444;48.056;14.408;2023-03-23T07:39:30;97269.50;;;9.52;81.48
38912;BME280;28444;48.056;14.408;2023-03-23T07:41:55;97282.81;;;9.48;80.85
38912;BME280;28444;48.056;14.408;2023-03-23T07:44:22;97278.16;;;9.58;80.22
38912;BME280;28444;48.056;14.408;2023-03-23T07:46:48;97271.66;;;9.53;80.13
38912;BME280;28444;48.056;14.408;2023-03-23T07:49:13;97275.59;;;9.60;80.83
38912;BME280;28444;48.056;14.408;2023-03-23T07:51:43;97274.38;;;9.71;79.91
38912;BME280;28444;48.056;14.408;2023-03-23T07:54:08;97276.31;;;9.78;80.19
38912;BME280;28444;48.056;14.408;2023-03-23T07:56:35;97274.94;;;9.86;79.33
38912;BME280;28444;48.056;14.408;2023-03-23T07:59:01;97270.09;;;9.95;80.06
38912;BME280;28444;48.056;14.408;2023-03-23T08:01:28;97262.69;;;10.05;80.04
38912;BME280;28444;48.056;14.408;2023-03-23T08:03:53;97267.00;;;10.25;78.60
38912;BME280;28444;48.056;14.408;2023-03-23T08:06:22;97263.09;;;10.46;78.43
38912;BME280;28444;48.056;14.408;2023-03-23T08:08:48;97268.06;;;10.67;78.54
38912;BME280;28444;48.056;14.408;2023-03-23T08:11:15;97265.13;;;10.92;77.58
38912;BME280;28444;48.056;14.408;2023-03-23T08:13:41;97263.06;;;11.19;76.84
38912;BME280;28444;48.056;14.408;2023-03-23T08:16:08;97261.78;;;11.30;75.46
38912;BME280;28444;48.056;14.408;2023-03-23T08:18:35;97253.72;;;11.61;74.21
38912;BME280;28444;48.056;14.408;2023-03-23T08:21:00;97254.75;;;11.85;73.96
38912;BME280;28444;48.056;14.408;2023-03-23T08:23:26;97252.13;;;11.97;72.80
38912;BME280;28444;48.056;14.408;2023-03-23T08:25:52;97252.09;;;12.16;72.33
38912;BME280;28444;48.056;14.408;2023-03-23T08:28:18;97262.59;;;12.29;71.78
38912;BME280;28444;48.056;14.408;2023-03-23T08:30:44;97261.44;;;12.42;71.00
38912;BME280;28444;48.056;14.408;2023-03-23T08:33:10;97260.66;;;12.51;70.69
38912;BME280;28444;48.056;14.408;2023-03-23T08:35:36;97264.56;;;12.58;71.46
38912;BME280;28444;48.056;14.408;2023-03-23T08:38:02;97256.03;;;12.64;69.95
38912;BME280;28444;48.056;14.408;2023-03-23T08:40:28;97261.06;;;12.67;70.01
38912;BME280;28444;48.056;14.408;2023-03-23T08:42:57;97269.00;;;12.63;69.10
38912;BME280;28444;48.056;14.408;2023-03-23T08:45:24;97269.22;;;12.77;69.19
38912;BME280;28444;48.056;14.408;2023-03-23T08:47:50;97263.25;;;12.59;69.05
38912;BME280;28444;48.056;14.408;2023-03-23T08:50:20;97265.53;;;12.63;69.50
38912;BME280;28444;48.056;14.408;2023-03-23T08:52:48;97266.25;;;12.63;70.11
38912;BME280;28444;48.056;14.408;2023-03-23T08:55:14;97254.75;;;12.55;70.55
38912;BME280;28444;48.056;14.408;2023-03-23T08:57:40;97259.34;;;12.52;71.03
38912;BME280;28444;48.056;14.408;2023-03-23T09:00:10;97258.38;;;12.48;71.45
38912;BME280;28444;48.056;14.408;2023-03-23T09:02:48;97256.22;;;12.46;71.64
38912;BME280;28444;48.056;14.408;2023-03-23T09:05:15;97259.81;;;12.49;71.87
38912;BME280;28444;48.056;14.408;2023-03-23T09:07:45;97251.13;;;12.52;72.17
38912;BME280;28444;48.056;14.408;2023-03-23T09:10:11;97258.47;;;12.60;72.02
38912;BME280;28444;48.056;14.408;2023-03-23T09:12:39;97260.03;;;12.72;71.95
38912;BME280;28444;48.056;14.408;2023-03-23T09:15:06;97257.13;;;13.01;70.39
38912;BME280;28444;48.056;14.408;2023-03-23T09:17:40;97259.72;;;12.99;71.17
38912;BME280;28444;48.056;14.408;2023-03-23T09:20:08;97248.13;;;13.11;71.37
38912;BME280;28444;48.056;14.408;2023-03-23T09:22:40;97236.00;;;13.35;69.99
38912;BME280;28444;48.056;14.408;2023-03-23T09:25:07;97242.28;;;13.47;69.36
38912;BME280;28444;48.056;14.408;2023-03-23T09:27:34;97234.66;;;13.58;69.85
38912;BME280;28444;48.056;14.408;2023-03-23T09:30:04;97228.88;;;13.75;70.08
38912;BME280;28444;48.056;14.408;2023-03-23T09:32:35;97225.50;;;13.98;67.52
38912;BME280;28444;48.056;14.408;2023-03-23T09:35:02;97219.09;;;14.17;65.69
38912;BME280;28444;48.056;14.408;2023-03-23T09:37:28;97219.59;;;14.37;64.22
38912;BME280;28444;48.056;14.408;2023-03-23T09:39:54;97222.16;;;14.56;64.21
38912;BME280;28444;48.056;14.408;2023-03-23T09:43:43;97219.38;;;14.80;63.85
38912;BME280;28444;48.056;14.408;2023-03-23T09:46:00;97209.75;;;15.16;63.37
38912;BME280;28444;48.056;14.408;2023-03-23T09:48:53;97200.69;;;15.51;61.69
38912;BME280;28444;48.056;14.408;2023-03-23T09:54:28;97199.16;;;15.99;59.67
38912;BME280;28444;48.056;14.408;2023-03-23T09:56:55;97201.72;;;16.08;58.89
38912;BME280;28444;48.056;14.408;2023-03-23T09:59:58;97202.28;;;16.19;58.66
38912;BME280;28444;48.056;14.408;2023-03-23T10:05:34;97204.03;;;16.26;57.47
38912;BME280;28444;48.056;14.408;2023-03-23T10:08:05;97203.47;;;16.16;55.84
38912;BME280;28444;48.056;14.408;2023-03-23T10:10:43;97195.88;;;16.28;56.53
38912;BME280;28444;48.056;14.408;2023-03-23T10:16:47;97194.66;;;16.31;60.60
38912;BME280;28444;48.056;14.408;2023-03-23T10:19:49;97185.44;;;16.26;60.33
38912;BME280;28444;48.056;14.408;2023-03-23T10:22:24;97193.31;;;16.32;60.56
38912;BME280;28444;48.056;14.408;2023-03-23T10:25:22;97190.34;;;16.28;60.29
38912;BME280;28444;48.056;14.408;2023-03-23T10:28:15;97188.91;;;16.41;57.32
38912;BME280;28444;48.056;14.408;2023-03-23T10:30:45;97188.84;;;16.39;59.62
38912;BME280;28444;48.056;14.408;2023-03-23T10:33:30;97183.72;;;16.33;61.57
38912;BME280;28444;48.056;14.408;2023-03-23T10:39:14;97174.28;;;16.10;62.25
38912;BME280;28444;48.056;14.408;2023-03-23T10:41:42;97175.69;;;15.98;61.00
38912;BME280;28444;48.056;14.408;2023-03-23T10:44:19;97169.44;;;15.97;61.74
38912;BME280;28444;48.056;14.408;2023-03-23T10:46:57;97164.53;;;15.96;62.12
38912;BME280;28444;48.056;14.408;2023-03-23T10:49:38;97164.53;;;15.96;61.77
38912;BME280;28444;48.056;14.408;2023-03-23T10:52:25;97162.59;;;15.98;62.71
38912;BME280;28444;48.056;14.408;2023-03-23T10:55:10;97172.19;;;15.97;61.64
38912;BME280;28444;48.056;14.408;2023-03-23T10:57:38;97162.69;;;16.00;61.12
38912;BME280;28444;48.056;14.408;2023-03-23T11:00:28;97155.25;;;16.03;61.74
38912;BME280;28444;48.056;14.408;2023-03-23T11:03:22;97158.34;;;16.09;62.44
38912;BME280;28444;48.056;14.408;2023-03-23T11:05:50;97158.44;;;16.11;62.46
38912;BME280;28444;48.056;14.408;2023-03-23T11:08:28;97157.72;;;16.10;59.33
38912;BME280;28444;48.056;14.408;2023-03-23T11:11:32;97159.06;;;16.09;60.22
38912;BME280;28444;48.056;14.408;2023-03-23T11:14:11;97153.34;;;16.19;59.50
38912;BME280;28444;48.056;14.408;2023-03-23T11:16:44;97154.06;;;16.20;59.78
38912;BME280;28444;48.056;14.408;2023-03-23T11:19:15;97149.28;;;16.20;57.29
38912;BME280;28444;48.056;14.408;2023-03-23T11:21:47;97152.56;;;16.30;57.12
38912;BME280;28444;48.056;14.408;2023-03-23T11:24:13;97153.16;;;16.43;56.02
38912;BME280;28444;48.056;14.408;2023-03-23T11:26:43;97148.88;;;16.67;56.54
38912;BME280;28444;48.056;14.408;2023-03-23T11:29:18;97148.06;;;16.65;55.78
38912;BME280;28444;48.056;14.408;2023-03-23T11:31:50;97148.38;;;16.71;55.94
38912;BME280;28444;48.056;14.408;2023-03-23T11:34:23;97143.44;;;16.69;56.63
38912;BME280;28444;48.056;14.408;2023-03-23T11:36:58;97143.28;;;16.79;56.19
38912;BME280;28444;48.056;14.408;2023-03-23T11:39:34;97130.88;;;16.94;55.87
38912;BME280;28444;48.056;14.408;2023-03-23T11:42:11;97125.94;;;17.06;55.54
38912;BME280;28444;48.056;14.408;2023-03-23T11:44:42;97130.72;;;17.19;53.80
38912;BME280;28444;48.056;14.408;2023-03-23T11:47:35;97118.28;;;17.34;54.71
38912;BME280;28444;48.056;14.408;2023-03-23T11:51:06;97118.56;;;17.40;55.76
38912;BME280;28444;48.056;14.408;2023-03-23T11:53:35;97109.84;;;17.46;56.46
38912;BME280;28444;48.056;14.408;2023-03-23T11:56:29;97106.56;;;17.49;53.87
38912;BME280;28444;48.056;14.408;2023-03-23T11:58:55;97105.97;;;17.67;52.82
38912;BME280;28444;48.056;14.408;2023-03-23T12:01:55;97103.19;;;17.67;55.92
38912;BME280;28444;48.056;14.408;2023-03-23T12:11:00;97094.25;;;18.14;52.58
38912;BME280;28444;48.056;14.408;2023-03-23T12:13:46;97088.50;;;18.25;51.18
38912;BME280;28444;48.056;14.408;2023-03-23T12:16:57;97086.38;;;18.24;53.92
38912;BME280;28444;48.056;14.408;2023-03-23T12:20:50;97087.78;;;18.25;49.65
38912;BME280;28444;48.056;14.408;2023-03-23T12:23:08;97085.91;;;18.29;50.54
38912;BME280;28444;48.056;14.408;2023-03-23T12:25:54;97091.34;;;18.43;50.44
38912;BME280;28444;48.056;14.408;2023-03-23T12:28:41;97088.66;;;18.45;50.70
38912;BME280;28444;48.056;14.408;2023-03-23T12:31:33;97084.56;;;18.46;48.76
38912;BME280;28444;48.056;14.408;2023-03-23T12:38:24;97078.34;;;18.64;48.29
38912;BME280;28444;48.056;14.408;2023-03-23T12:47:07;97080.16;;;19.09;47.16
38912;BME280;28444;48.056;14.408;2023-03-23T12:50:21;97070.84;;;19.00;45.64
38912;BME280;28444;48.056;14.408;2023-03-23T12:56:02;97061.56;;;18.93;47.87
38912;BME280;28444;48.056;14.408;2023-03-23T12:58:31;97070.09;;;18.82;44.78
38912;BME280;28444;48.056;14.408;2023-03-23T13:01:07;97056.97;;;19.00;43.70
38912;BME280;28444;48.056;14.408;2023-03-23T13:06:46;97063.00;;;19.12;42.93
38912;BME280;28444;48.056;14.408;2023-03-23T13:09:54;97063.47;;;19.07;41.18
38912;BME280;28444;48.056;14.408;2023-03-23T13:12:22;97056.59;;;19.26;42.42
38912;BME280;28444;48.056;14.408;2023-03-23T13:14:53;97061.88;;;19.19;41.01
38912;BME280;28444;48.056;14.408;2023-03-23T13:17:54;97059.50;;;19.30;42.01
38912;BME280;28444;48.056;14.408;2023-03-23T13:23:23;97064.91;;;19.26;41.76
38912;BME280;28444;48.056;14.408;2023-03-23T13:29:00;97049.84;;;19.31;46.97
38912;BME280;28444;48.056;14.408;2023-03-23T13:31:34;97048.09;;;19.39;46.52
38912;BME280;28444;48.056;14.408;2023-03-23T13:34:10;97042.31;;;19.33;45.66
38912;BME280;28444;48.056;14.408;2023-03-23T13:36:42;97039.16;;;19.23;46.15
38912;BME280;28444;48.056;14.408;2023-03-23T13:39:24;97047.63;;;19.09;46.63
38912;BME280;28444;48.056;14.408;2023-03-23T13:45:19;97027.53;;;19.09;45.83
38912;BME280;28444;48.056;14.408;2023-03-23T13:47:46;97028.41;;;18.95;47.95
38912;BME280;28444;48.056;14.408;2023-03-23T13:50:30;97034.56;;;18.76;49.22
38912;BME280;28444;48.056;14.408;2023-03-23T13:53:11;97037.25;;;18.74;49.72
38912;BME280;28444;48.056;14.408;2023-03-23T13:55:49;97035.75;;;18.55;50.76
38912;BME280;28444;48.056;14.408;2023-03-23T13:58:25;97027.06;;;18.45;50.40
38912;BME280;28444;48.056;14.408;2023-03-23T14:03:59;97019.25;;;18.57;48.46
38912;BME280;28444;48.056;14.408;2023-03-23T14:06:33;97028.47;;;18.80;48.28
38912;BME280;28444;48.056;14.408;2023-03-23T14:12:03;97028.47;;;18.80;49.03
38912;BME280;28444;48.056;14.408;2023-03-23T14:14:59;97031.97;;;18.98;48.91
38912;BME280;28444;48.056;14.408;2023-03-23T14:17:31;97028.72;;;18.86;50.63
38912;BME280;28444;48.056;14.408;2023-03-23T14:19:59;97027.97;;;18.67;52.02